createdAt,value
2022-09-11T00:00:28.053Z,44.9860
2022-09-11T00:01:30.293Z,44.9700
2022-09-11T00:02:32.556Z,44.9580
2022-09-11T00:03:34.790Z,44.9920
2022-09-11T00:04:37.053Z,44.9980
2022-09-11T00:05:37.222Z,45.0100
2022-09-11T00:06:39.367Z,44.9980
2022-09-11T00:07:41.657Z,44.9860
2022-09-11T00:08:43.906Z,44.9780
2022-09-11T00:09:46.129Z,44.9540
2022-09-11T00:10:48.496Z,44.9860
2022-09-11T00:11:50.667Z,44.9600
2022-09-11T00:12:52.927Z,44.9660
2022-09-11T00:13:55.159Z,44.9780
2022-09-11T00:14:55.239Z,44.9600
2022-09-11T00:15:57.486Z,44.9660
2022-09-11T00:16:59.671Z,44.9660
2022-09-11T00:18:01.876Z,44.9920
2022-09-11T00:19:04.093Z,45.0260
2022-09-11T00:20:06.294Z,44.9880
2022-09-11T00:21:08.573Z,44.9880
2022-09-11T00:22:10.819Z,45.0000
2022-09-11T00:23:13.095Z,45.0000
2022-09-11T00:24:15.319Z,45.0000
2022-09-11T00:25:17.610Z,44.9820
2022-09-11T00:26:17.790Z,44.9980
2022-09-11T00:27:19.971Z,44.9760
2022-09-11T00:28:22.153Z,44.9940
2022-09-11T00:29:24.299Z,44.9700
2022-09-11T00:30:26.510Z,44.9880
2022-09-11T00:31:28.722Z,45.0060
2022-09-11T00:32:30.855Z,45.0060
2022-09-11T00:33:33.037Z,45.0000
2022-09-11T00:34:35.156Z,45.0260
2022-09-11T00:35:37.319Z,45.0120
2022-09-11T00:36:39.565Z,45.0200
2022-09-11T00:37:41.656Z,44.9940
2022-09-11T00:38:43.862Z,44.9880
2022-09-11T00:39:46.066Z,44.9700
2022-09-11T00:40:48.311Z,44.9940
2022-09-11T00:41:50.616Z,44.9940
2022-09-11T00:42:50.717Z,45.0200
2022-09-11T00:43:53.032Z,45.0340
2022-09-11T00:44:55.295Z,45.0410
2022-09-11T00:45:57.625Z,45.0410
2022-09-11T00:46:59.979Z,45.0780
2022-09-11T00:48:02.204Z,45.0540
2022-09-11T00:49:04.493Z,45.0540
2022-09-11T00:50:04.611Z,45.0740
2022-09-11T00:51:06.870Z,45.0480
2022-09-11T00:52:09.240Z,45.0480
2022-09-11T00:53:11.354Z,45.0280
2022-09-11T00:54:13.628Z,45.0480
2022-09-11T00:55:15.890Z,45.0000
2022-09-11T00:56:18.169Z,45.0200
2022-09-11T00:57:20.498Z,44.9980
2022-09-11T00:58:20.635Z,44.9920
2022-09-11T00:59:22.901Z,45.0100
2022-09-11T01:00:25.189Z,45.0040
2022-09-11T01:01:27.434Z,45.0220
2022-09-11T01:02:29.735Z,45.0220
2022-09-11T01:03:31.990Z,45.0380
2022-09-11T01:05:01.667Z,45.1390
2022-09-11T01:06:02.246Z,45.1370
2022-09-11T01:07:04.463Z,45.1460
2022-09-11T01:08:06.746Z,45.1160
2022-09-11T01:09:08.955Z,45.0740
2022-09-11T01:10:11.224Z,45.0740
2022-09-11T01:11:13.458Z,45.0560
2022-09-11T01:12:15.677Z,45.0740
2022-09-11T01:13:17.926Z,45.0880
2022-09-11T01:14:20.139Z,45.0510
2022-09-11T01:15:20.239Z,45.0910
2022-09-11T01:16:22.517Z,45.1030
2022-09-11T01:17:24.656Z,45.0840
2022-09-11T01:18:26.888Z,45.0720
2022-09-11T01:19:29.082Z,45.0660
2022-09-11T01:20:31.188Z,45.0600
2022-09-11T01:21:34.589Z,45.0910
2022-09-11T01:22:35.631Z,45.0560
2022-09-11T01:23:37.974Z,45.0790
2022-09-11T01:24:40.092Z,45.0720
2022-09-11T01:25:42.324Z,45.0910
2022-09-11T01:26:44.574Z,45.0790
2022-09-11T01:27:46.805Z,45.1030
2022-09-11T01:28:49.054Z,45.1130
2022-09-11T01:29:51.223Z,45.1070
2022-09-11T01:30:51.315Z,45.1010
2022-09-11T01:31:53.574Z,45.1090
2022-09-11T01:32:55.848Z,45.1190
2022-09-11T01:33:58.135Z,45.0880
2022-09-11T01:35:00.417Z,45.0940
2022-09-11T01:36:02.661Z,45.1210
2022-09-11T01:37:04.945Z,45.1270
2022-09-11T01:38:05.070Z,45.1330
2022-09-11T01:39:07.358Z,45.1270
2022-09-11T01:40:09.659Z,45.1330
2022-09-11T01:41:11.816Z,45.1450
2022-09-11T01:42:14.024Z,45.1210
2022-09-11T01:43:16.256Z,45.1330
2022-09-11T01:44:18.485Z,45.1450
2022-09-11T01:45:20.728Z,45.1390
2022-09-11T01:46:23.165Z,45.1190
2022-09-11T01:47:25.219Z,45.1190
2022-09-11T01:48:27.460Z,45.1270
2022-09-11T01:49:27.550Z,45.1070
2022-09-11T01:50:29.802Z,45.1070
2022-09-11T01:51:32.026Z,45.1390
2022-09-11T01:52:34.244Z,45.1390
2022-09-11T01:53:36.481Z,45.1510
2022-09-11T01:54:38.732Z,45.1270
2022-09-11T01:55:40.928Z,45.1610
2022-09-11T01:56:43.137Z,45.1550
2022-09-11T01:57:45.337Z,45.1850
2022-09-11T01:58:47.530Z,45.1550
2022-09-11T01:59:49.770Z,45.1550
2022-09-11T02:00:52.024Z,45.1670
2022-09-11T02:01:54.264Z,45.1510
2022-09-11T02:02:54.284Z,45.1470
2022-09-11T02:03:56.524Z,45.1410
2022-09-11T02:04:58.793Z,45.1610
2022-09-11T02:06:01.039Z,45.1550
2022-09-11T02:07:03.267Z,45.1550
2022-09-11T02:08:05.473Z,45.1970
2022-09-11T02:09:07.733Z,45.1910
2022-09-11T02:10:09.969Z,45.1790
2022-09-11T02:11:12.181Z,45.1670
2022-09-11T02:12:14.349Z,45.1670
2022-09-11T02:13:16.567Z,45.1670
2022-09-11T02:14:18.784Z,45.1730
2022-09-11T02:15:18.870Z,45.1970
2022-09-11T02:16:21.181Z,45.1850
2022-09-11T02:17:23.428Z,45.1670
2022-09-11T02:18:25.698Z,45.1790
2022-09-11T02:19:27.955Z,45.2090
2022-09-11T02:20:30.244Z,45.1970
2022-09-11T02:21:32.535Z,45.1890
2022-09-11T02:22:32.659Z,45.2070
2022-09-11T02:23:34.950Z,45.2010
2022-09-11T02:24:37.240Z,45.2250
2022-09-11T02:25:39.540Z,45.2310
2022-09-11T02:26:41.821Z,45.2070
2022-09-11T02:27:44.117Z,45.2070
2022-09-11T02:28:46.406Z,45.2010
2022-09-11T02:29:48.701Z,45.2190
2022-09-11T02:30:48.789Z,45.2190
2022-09-11T02:31:51.069Z,45.2130
2022-09-11T02:32:53.265Z,45.2310
2022-09-11T02:33:55.544Z,45.2600
2022-09-11T02:34:57.835Z,45.2510
2022-09-11T02:36:00.145Z,45.2690
2022-09-11T02:37:02.433Z,45.2510
2022-09-11T02:38:04.694Z,45.2250
2022-09-11T02:39:04.823Z,45.2380
2022-09-11T02:40:07.155Z,45.2380
2022-09-11T02:41:09.496Z,45.2290
2022-09-11T02:42:11.668Z,45.2660
2022-09-11T02:43:13.834Z,45.2380
2022-09-11T02:44:16.073Z,45.2360
2022-09-11T02:45:18.482Z,45.2360
2022-09-11T02:46:20.584Z,45.2540
2022-09-11T02:47:20.656Z,45.2630
2022-09-11T02:48:22.884Z,45.2360
2022-09-11T02:49:25.125Z,45.2410
2022-09-11T02:50:27.414Z,45.2360
2022-09-11T02:51:29.675Z,45.2430
2022-09-11T02:52:31.867Z,45.2190
2022-09-11T02:53:34.057Z,45.2410
2022-09-11T02:54:36.235Z,45.2480
2022-09-11T02:55:38.441Z,45.2700
2022-09-11T02:56:40.711Z,45.2540
2022-09-11T02:57:42.929Z,45.2760
2022-09-11T02:58:45.169Z,45.2700
2022-09-11T02:59:45.257Z,45.2880
2022-09-11T03:00:47.560Z,45.3160
2022-09-11T03:01:49.898Z,45.3000
2022-09-11T03:02:52.070Z,45.2580
2022-09-11T03:05:03.119Z,45.3440
2022-09-11T03:06:05.313Z,45.3500
2022-09-11T03:07:07.551Z,45.3280
2022-09-11T03:08:09.764Z,45.3220
2022-09-11T03:09:12.017Z,45.3100
2022-09-11T03:10:14.263Z,45.3160
2022-09-11T03:11:16.526Z,45.2980
2022-09-11T03:12:18.851Z,45.3220
2022-09-11T03:13:21.106Z,45.3000
2022-09-11T03:14:21.253Z,45.2920
2022-09-11T03:15:23.541Z,45.3280
2022-09-11T03:16:25.867Z,45.3160
2022-09-11T03:17:28.114Z,45.3040
2022-09-11T03:18:30.397Z,45.3220
2022-09-11T03:20:55.300Z,45.4050
2022-09-11T03:21:56.483Z,45.3780
2022-09-11T03:22:58.683Z,45.3380
2022-09-11T03:24:00.891Z,45.3060
2022-09-11T03:25:03.114Z,45.3060
2022-09-11T03:26:05.372Z,45.3560
2022-09-11T03:27:07.629Z,45.3280
2022-09-11T03:28:09.891Z,45.3040
2022-09-11T03:29:09.992Z,45.3140
2022-09-11T03:30:12.237Z,45.3000
2022-09-11T03:31:14.548Z,45.2980
2022-09-11T03:32:16.755Z,45.3400
2022-09-11T03:33:09.959Z,45.4010
2022-09-11T03:34:10.578Z,45.3790
2022-09-11T03:35:12.778Z,45.3480
2022-09-11T03:36:15.011Z,45.3660
2022-09-11T03:37:17.239Z,45.3260
2022-09-11T03:38:19.411Z,45.3540
2022-09-11T03:39:21.657Z,45.3280
2022-09-11T03:40:23.835Z,45.3160
2022-09-11T03:41:23.948Z,45.3280
2022-09-11T03:42:26.231Z,45.3100
2022-09-11T03:43:28.510Z,45.3160
2022-09-11T03:44:30.794Z,45.3320
2022-09-11T03:45:33.026Z,45.3200
2022-09-11T03:46:35.187Z,45.3440
2022-09-11T03:47:37.389Z,45.3540
2022-09-11T03:48:39.599Z,45.3720
2022-09-11T03:49:41.823Z,45.3500
2022-09-11T03:50:43.974Z,45.3320
2022-09-11T03:51:46.175Z,45.3600
2022-09-11T03:52:48.375Z,45.3500
2022-09-11T03:53:50.552Z,45.3380
2022-09-11T03:54:52.830Z,45.3260
2022-09-11T03:55:52.884Z,45.3380
2022-09-11T03:56:55.129Z,45.3480
2022-09-11T03:57:57.384Z,45.3200
2022-09-11T03:58:59.641Z,45.3380
2022-09-11T04:00:03.075Z,45.3790
2022-09-11T04:01:03.039Z,45.5250
2022-09-11T04:02:05.289Z,45.7000
2022-09-11T04:03:07.503Z,45.7750
2022-09-11T04:04:09.719Z,45.8650
2022-09-11T04:05:12.098Z,45.9030
2022-09-11T04:06:14.282Z,45.8930
2022-09-11T04:07:16.549Z,45.9320
2022-09-11T04:08:18.751Z,45.9560
2022-09-11T04:09:20.937Z,45.9800
2022-09-11T04:10:23.239Z,45.9860
2022-09-11T04:11:25.281Z,45.9680
2022-09-11T04:12:27.460Z,45.9620
2022-09-11T04:13:29.694Z,46.0020
2022-09-11T04:14:31.971Z,45.9860
2022-09-11T04:15:34.279Z,46.0200
2022-09-11T04:16:34.476Z,46.0080
2022-09-11T04:17:36.595Z,45.9960
2022-09-11T04:18:38.851Z,46.0020
2022-09-11T04:19:41.091Z,46.0080
2022-09-11T04:20:43.446Z,46.0080
2022-09-11T04:21:45.574Z,46.0140
2022-09-11T04:22:47.807Z,46.0200
2022-09-11T04:23:50.045Z,46.0260
2022-09-11T04:24:52.277Z,46.0400
2022-09-11T04:25:54.628Z,46.0460
2022-09-11T04:27:00.640Z,46.0340
2022-09-11T04:27:58.938Z,46.0810
2022-09-11T04:29:01.181Z,46.0930
2022-09-11T04:30:03.434Z,46.0710
2022-09-11T04:31:05.768Z,46.0770
2022-09-11T04:32:07.897Z,46.0750
2022-09-11T04:33:10.142Z,46.0710
2022-09-11T04:34:12.358Z,46.0580
2022-09-11T04:35:14.606Z,46.0990
2022-09-11T04:36:16.901Z,46.1190
2022-09-11T04:37:19.112Z,46.1050
2022-09-11T04:38:21.356Z,46.0990
2022-09-11T04:39:23.596Z,46.1050
2022-09-11T04:40:25.805Z,46.0870
2022-09-11T04:41:28.137Z,46.0890
2022-09-11T04:42:30.238Z,46.1190
2022-09-11T04:43:32.465Z,46.1320
2022-09-11T04:44:34.634Z,46.1050
2022-09-11T04:45:36.888Z,46.1250
2022-09-11T04:46:36.948Z,46.1050
2022-09-11T04:47:39.162Z,46.1050
2022-09-11T04:48:41.385Z,46.1320
2022-09-11T04:49:43.567Z,46.1190
2022-09-11T04:50:45.819Z,46.1250
2022-09-11T04:51:45.937Z,46.1380
2022-09-11T04:52:48.186Z,46.1560
2022-09-11T04:53:50.430Z,46.1560
2022-09-11T04:54:52.651Z,46.1680
2022-09-11T04:55:54.897Z,46.1380
2022-09-11T04:56:57.192Z,46.1500
2022-09-11T04:57:59.362Z,46.1560
2022-09-11T04:59:01.573Z,46.1680
2022-09-11T05:00:03.834Z,46.1680
2022-09-11T05:01:06.124Z,46.1680
2022-09-11T05:02:08.487Z,46.1720
2022-09-11T05:03:10.528Z,46.1840
2022-09-11T05:04:12.773Z,46.1840
2022-09-11T05:05:14.996Z,46.2120
2022-09-11T05:06:17.284Z,46.2460
2022-09-11T05:07:19.624Z,46.2280
2022-09-11T05:08:19.748Z,46.2180
2022-09-11T05:09:22.058Z,46.1960
2022-09-11T05:10:24.366Z,46.2020
2022-09-11T05:11:26.668Z,46.2020
2022-09-11T05:12:28.995Z,46.2280
2022-09-11T05:13:35.664Z,46.2220
2022-09-11T05:14:33.585Z,46.2360
2022-09-11T05:15:33.741Z,46.2560
2022-09-11T05:16:36.099Z,46.2220
2022-09-11T05:17:38.359Z,46.2340
2022-09-11T05:18:40.433Z,46.2220
2022-09-11T05:19:40.591Z,46.2220
2022-09-11T05:20:42.908Z,46.2220
2022-09-11T05:21:45.221Z,46.2280
2022-09-11T05:22:47.550Z,46.2400
2022-09-11T05:23:49.853Z,46.2340
2022-09-11T05:24:52.119Z,46.2500
2022-09-11T05:25:54.335Z,46.2620
2022-09-11T05:26:54.442Z,46.2690
2022-09-11T05:29:29.300Z,46.2870
2022-09-11T05:30:25.808Z,46.2990
2022-09-11T05:31:28.146Z,46.2770
2022-09-11T05:32:30.297Z,46.2750
2022-09-11T05:33:32.563Z,46.2560
2022-09-11T05:34:34.848Z,46.2690
2022-09-11T05:35:37.074Z,46.2690
2022-09-11T05:36:39.338Z,46.2690
2022-09-11T05:37:41.571Z,46.2990
2022-09-11T05:38:41.692Z,46.2750
2022-09-11T05:39:43.949Z,46.2810
2022-09-11T05:40:46.078Z,46.2850
2022-09-11T05:41:48.259Z,46.2930
2022-09-11T05:42:50.440Z,46.2850
2022-09-11T05:43:52.599Z,46.2700
2022-09-11T05:44:54.832Z,46.2620
2022-09-11T05:45:57.132Z,46.2750
2022-09-11T05:46:59.201Z,46.2690
2022-09-11T05:48:01.413Z,46.2750
2022-09-11T05:49:03.655Z,46.2500
2022-09-11T05:50:05.901Z,46.2700
2022-09-11T05:51:08.108Z,46.2690
2022-09-11T05:52:10.333Z,46.2700
2022-09-11T05:53:12.569Z,46.2650
2022-09-11T05:54:14.810Z,46.2810
2022-09-11T05:55:17.068Z,46.2870
2022-09-11T05:56:19.309Z,46.2750
2022-09-11T05:57:19.425Z,46.3250
2022-09-11T05:58:21.693Z,46.2870
2022-09-11T05:59:23.935Z,46.3110
2022-09-11T06:00:26.181Z,46.3250
2022-09-11T06:01:28.465Z,46.3050
2022-09-11T06:02:28.409Z,46.3250
2022-09-11T06:03:30.607Z,46.3090
2022-09-11T06:04:32.810Z,46.2970
2022-09-11T06:05:35.082Z,46.3370
2022-09-11T06:06:37.328Z,46.3490
2022-09-11T06:07:39.542Z,46.3670
2022-09-11T06:08:41.711Z,46.4140
2022-09-11T06:09:43.907Z,46.4240
2022-09-11T06:10:46.165Z,46.4980
2022-09-11T06:11:46.234Z,46.5490
2022-09-11T06:12:48.495Z,46.6070
2022-09-11T06:13:50.767Z,46.6390
2022-09-11T06:14:53.036Z,46.5950
2022-09-11T06:15:55.418Z,46.6390
2022-09-11T06:16:57.574Z,46.6420
2022-09-11T06:17:59.763Z,46.6390
2022-09-11T06:19:02.007Z,46.6330
2022-09-11T06:20:04.250Z,46.6580
2022-09-11T06:21:06.597Z,46.6540
2022-09-11T06:22:08.727Z,46.6800
2022-09-11T06:23:10.964Z,46.6920
2022-09-11T06:24:13.191Z,46.6800
2022-09-11T06:25:15.409Z,46.6350
2022-09-11T06:26:17.698Z,46.6420
2022-09-11T06:27:19.779Z,46.6600
2022-09-11T06:28:21.943Z,46.6920
2022-09-11T06:29:24.170Z,46.6680
2022-09-11T06:30:26.465Z,46.6430
2022-09-11T06:31:28.633Z,46.6690
2022-09-11T06:32:30.819Z,46.6810
2022-09-11T06:33:33.028Z,46.6740
2022-09-11T06:34:35.190Z,46.6750
2022-09-11T06:35:37.351Z,46.6630
2022-09-11T06:36:39.648Z,46.6810
2022-09-11T06:37:41.749Z,46.6750
2022-09-11T06:38:43.985Z,46.6750
2022-09-11T06:39:46.270Z,46.6490
2022-09-11T06:40:48.409Z,46.6630
2022-09-11T06:41:50.748Z,46.6710
2022-09-11T06:42:52.822Z,46.6870
2022-09-11T06:43:52.852Z,46.6870
2022-09-11T06:44:55.050Z,46.6770
2022-09-11T06:45:57.262Z,46.6870
2022-09-11T06:46:59.468Z,46.7090
2022-09-11T06:48:01.557Z,46.7090
2022-09-11T06:49:03.779Z,46.7150
2022-09-11T06:50:05.984Z,46.6910
2022-09-11T06:51:08.141Z,46.7030
2022-09-11T06:52:10.387Z,46.6650
2022-09-11T06:53:12.546Z,46.6630
2022-09-11T06:54:14.772Z,46.6770
2022-09-11T06:55:17.007Z,46.6710
2022-09-11T06:56:19.245Z,46.6910
2022-09-11T06:57:21.506Z,46.6830
2022-09-11T06:58:23.709Z,46.6970
2022-09-11T06:59:25.938Z,46.7210
2022-09-11T07:00:28.184Z,46.7280
2022-09-11T07:01:30.498Z,46.7250
2022-09-11T07:02:32.615Z,46.7610
2022-09-11T07:03:32.637Z,46.7790
2022-09-11T07:04:34.874Z,46.7970
2022-09-11T07:05:37.101Z,46.8120
2022-09-11T07:06:39.347Z,46.8370
2022-09-11T07:07:41.630Z,46.8550
2022-09-11T07:08:43.756Z,46.8980
2022-09-11T07:09:45.933Z,46.9310
2022-09-11T07:10:48.147Z,46.9110
2022-09-11T07:11:50.369Z,46.9310
2022-09-11T07:12:52.588Z,46.9370
2022-09-11T07:13:54.825Z,46.9560
2022-09-11T07:14:57.052Z,47.0120
2022-09-11T07:15:59.273Z,47.0200
2022-09-11T07:17:01.488Z,47.0200
2022-09-11T07:18:03.756Z,47.0470
2022-09-11T07:19:05.964Z,47.0890
2022-09-11T07:20:08.160Z,47.0890
2022-09-11T07:21:10.355Z,47.1030
2022-09-11T07:22:10.447Z,47.1150
2022-09-11T07:23:12.713Z,47.1620
2022-09-11T07:24:14.928Z,47.1930
2022-09-11T07:25:17.164Z,47.1990
2022-09-11T07:26:19.425Z,47.2090
2022-09-11T07:27:21.640Z,47.2410
2022-09-11T07:28:23.883Z,47.2410
2022-09-11T07:29:26.088Z,47.2530
2022-09-11T07:30:28.428Z,47.2490
2022-09-11T07:31:30.641Z,47.2490
2022-09-11T07:32:32.926Z,47.2760
2022-09-11T07:33:35.253Z,47.2030
2022-09-11T07:34:35.270Z,47.2370
2022-09-11T07:35:37.554Z,47.2030
2022-09-11T07:36:39.835Z,47.2590
2022-09-11T07:37:42.097Z,47.3530
2022-09-11T07:38:42.280Z,47.3810
2022-09-11T07:39:44.627Z,47.2940
2022-09-11T07:40:46.736Z,47.2330
2022-09-11T07:41:48.970Z,47.2880
2022-09-11T07:42:51.210Z,47.1930
2022-09-11T07:43:53.466Z,47.1050
2022-09-11T07:44:55.650Z,47.0830
2022-09-11T07:45:57.892Z,47.0030
2022-09-11T07:47:00.088Z,47.0200
2022-09-11T07:48:02.270Z,47.0470
2022-09-11T07:49:04.508Z,47.0090
2022-09-11T07:50:06.709Z,47.0420
2022-09-11T07:51:08.955Z,46.9790
2022-09-11T07:52:09.006Z,46.9520
2022-09-11T07:53:11.246Z,46.9520
2022-09-11T07:54:13.510Z,46.9460
2022-09-11T07:55:15.721Z,46.9550
2022-09-11T07:56:17.930Z,46.8260
2022-09-11T07:57:18.031Z,46.8070
2022-09-11T07:58:20.293Z,46.9060
2022-09-11T07:59:22.674Z,46.8070
2022-09-11T08:00:24.853Z,46.7330
2022-09-11T08:01:25.000Z,46.7450
2022-09-11T08:02:22.508Z,46.7890
2022-09-11T08:03:25.163Z,46.6860
2022-09-11T08:04:25.383Z,46.6750
2022-09-11T08:05:27.503Z,46.5860
2022-09-11T08:06:29.741Z,46.5340
2022-09-11T08:07:32.007Z,46.4430
2022-09-11T08:08:34.261Z,46.6140
2022-09-11T08:09:36.563Z,46.4990
2022-09-11T08:10:38.795Z,46.5970
2022-09-11T08:11:40.989Z,46.4720
2022-09-11T08:12:43.151Z,46.4500
2022-09-11T08:13:45.294Z,46.5570
2022-09-11T08:14:47.574Z,46.5570
2022-09-11T08:15:49.590Z,46.4890
2022-09-11T08:16:51.781Z,46.4140
2022-09-11T08:17:53.908Z,46.4560
2022-09-11T08:18:56.057Z,46.3640
2022-09-11T08:19:58.253Z,46.3670
2022-09-11T08:21:00.390Z,46.4480
2022-09-11T08:22:02.541Z,46.5870
2022-09-11T08:23:04.743Z,46.5390
2022-09-11T08:24:06.871Z,46.2240
2022-09-11T08:25:09.067Z,46.2770
2022-09-11T08:26:11.217Z,46.2080
2022-09-11T08:27:11.260Z,46.2550
2022-09-11T08:28:13.400Z,46.1960
2022-09-11T08:29:15.594Z,45.3270
2022-09-11T08:30:17.811Z,45.3920
2022-09-11T08:31:20.210Z,45.8350
2022-09-11T08:32:22.163Z,45.8580
2022-09-11T08:33:22.313Z,45.7500
2022-09-11T08:34:24.663Z,45.8710
2022-09-11T08:35:26.907Z,46.0420
2022-09-11T08:36:29.135Z,46.3590
2022-09-11T08:37:31.396Z,46.5630
2022-09-11T08:38:31.509Z,46.7010
2022-09-11T08:39:33.785Z,46.5880
2022-09-11T08:40:36.165Z,46.6380
2022-09-11T08:41:38.299Z,46.7250
2022-09-11T08:42:40.529Z,46.6340
2022-09-11T08:43:42.888Z,46.7150
2022-09-11T08:44:45.037Z,46.4500
2022-09-11T08:45:47.352Z,46.3030
2022-09-11T08:46:49.519Z,46.2720
2022-09-11T08:47:51.779Z,46.3600
2022-09-11T08:48:51.889Z,46.1830
2022-09-11T08:49:54.128Z,46.4170
2022-09-11T08:50:56.526Z,46.4710
2022-09-11T08:51:58.678Z,46.6270
2022-09-11T08:53:00.941Z,46.5030
2022-09-11T08:54:03.196Z,46.4200
2022-09-11T08:55:05.464Z,46.4800
2022-09-11T08:56:07.818Z,46.1000
2022-09-11T08:57:09.960Z,45.8670
2022-09-11T08:58:10.055Z,45.7760
2022-09-11T08:59:12.273Z,45.5500
2022-09-11T09:00:14.480Z,45.7080
2022-09-11T09:01:17.962Z,45.7940
2022-09-11T09:02:18.980Z,45.8920
2022-09-11T09:03:21.145Z,45.9200
2022-09-11T09:04:23.353Z,45.8070
2022-09-11T09:05:25.602Z,45.8010
2022-09-11T09:06:27.869Z,45.6820
2022-09-11T09:07:30.080Z,45.6150
2022-09-11T09:08:30.213Z,45.5510
2022-09-11T09:09:35.088Z,45.5330
2022-09-11T09:10:34.741Z,45.4650
2022-09-11T09:11:37.032Z,45.3360
2022-09-11T09:12:39.249Z,45.2340
2022-09-11T09:13:41.600Z,45.2380
2022-09-11T09:14:43.856Z,45.1590
2022-09-11T09:15:46.193Z,45.1190
2022-09-11T09:16:46.333Z,45.0720
2022-09-11T09:17:48.637Z,44.9270
2022-09-11T09:18:50.970Z,44.9330
2022-09-11T09:19:53.258Z,44.9430
2022-09-11T09:20:55.551Z,44.8650
2022-09-11T09:21:57.976Z,44.8830
2022-09-11T09:23:00.123Z,44.8710
2022-09-11T09:24:00.291Z,44.8430
2022-09-11T09:25:02.537Z,44.7180
2022-09-11T09:26:04.773Z,44.8330
2022-09-11T09:27:07.097Z,44.7690
2022-09-11T09:28:09.349Z,44.7600
2022-09-11T09:29:11.590Z,44.7080
2022-09-11T09:30:13.889Z,44.7070
2022-09-11T09:31:14.049Z,44.5790
2022-09-11T09:32:16.351Z,44.5170
2022-09-11T09:33:18.606Z,44.4070
2022-09-11T09:34:20.907Z,44.4490
2022-09-11T09:35:23.193Z,44.5330
2022-09-11T09:36:25.485Z,44.4650
2022-09-11T09:37:27.892Z,44.4160
2022-09-11T09:38:30.054Z,44.3420
2022-09-11T09:39:30.211Z,44.4030
2022-09-11T09:40:32.546Z,44.3750
2022-09-11T09:41:34.803Z,44.3600
2022-09-11T09:42:37.123Z,44.2680
2022-09-11T09:43:39.441Z,44.2120
2022-09-11T09:44:39.587Z,44.1680
2022-09-11T09:45:41.895Z,44.0830
2022-09-11T09:46:47.573Z,44.0090
2022-09-11T09:47:46.570Z,44.1140
2022-09-11T09:48:48.758Z,44.0090
2022-09-11T09:49:51.040Z,44.0890
2022-09-11T09:50:53.344Z,44.1480
2022-09-11T09:51:53.439Z,43.8620
2022-09-11T09:52:55.761Z,43.7940
2022-09-11T09:53:58.007Z,43.8920
2022-09-11T09:55:00.348Z,43.8240
2022-09-11T09:56:02.606Z,43.8620
2022-09-11T09:57:04.890Z,43.9650
2022-09-11T09:58:07.183Z,43.8400
2022-09-11T09:59:09.392Z,43.9310
2022-09-11T10:00:09.505Z,43.9100
2022-09-11T10:01:14.399Z,44.0510
2022-09-11T10:02:14.114Z,44.4570
2022-09-11T10:03:16.441Z,44.4220
2022-09-11T10:04:18.669Z,44.4160
2022-09-11T10:05:20.944Z,44.5120
2022-09-11T10:06:23.266Z,44.6180
2022-09-11T10:07:23.430Z,44.7310
2022-09-11T10:08:25.775Z,44.7610
2022-09-11T10:09:28.076Z,44.6410
2022-09-11T10:10:30.368Z,44.6910
2022-09-11T10:11:32.656Z,44.6630
2022-09-11T10:12:34.872Z,44.6750
2022-09-11T10:13:37.086Z,44.5750
2022-09-11T10:14:52.650Z,44.4780
2022-09-11T10:15:39.405Z,44.5800
2022-09-11T10:16:41.610Z,44.5890
2022-09-11T10:17:43.848Z,44.4890
2022-09-11T10:18:46.109Z,44.5130
2022-09-11T10:19:48.339Z,44.5850
2022-09-11T10:20:50.628Z,44.5190
2022-09-11T10:21:52.875Z,44.5230
2022-09-11T10:22:55.116Z,44.2780
2022-09-11T10:23:57.381Z,44.3040
2022-09-11T10:24:57.380Z,44.3650
2022-09-11T10:25:59.592Z,44.3830
2022-09-11T10:27:01.841Z,44.2780
2022-09-11T10:28:04.059Z,44.2780
2022-09-11T10:29:06.271Z,44.1060
2022-09-11T10:30:08.453Z,44.0890
2022-09-11T10:31:10.691Z,44.0950
2022-09-11T10:32:12.867Z,44.1960
2022-09-11T10:33:15.114Z,44.1620
2022-09-11T10:34:17.423Z,44.0390
2022-09-11T10:35:19.639Z,43.8660
2022-09-11T10:36:21.920Z,43.9950
2022-09-11T10:37:22.049Z,43.8500
2022-09-11T10:38:24.333Z,43.8980
2022-09-11T10:39:26.654Z,44.0170
2022-09-11T10:40:28.922Z,44.0730
2022-09-11T10:41:31.217Z,44.1650
2022-09-11T10:42:33.519Z,44.0210
2022-09-11T10:43:35.816Z,44.0110
2022-09-11T10:44:35.947Z,43.6910
2022-09-11T10:45:38.246Z,43.7090
2022-09-11T10:46:40.953Z,43.8880
2022-09-11T10:47:42.789Z,43.6120
2022-09-11T10:48:45.081Z,43.6830
2022-09-11T10:49:47.395Z,43.8580
2022-09-11T10:50:49.648Z,43.8920
2022-09-11T10:51:49.790Z,43.9470
2022-09-11T10:52:52.072Z,43.9950
2022-09-11T10:53:54.278Z,43.9430
2022-09-11T10:54:56.582Z,44.0290
2022-09-11T10:55:58.792Z,44.0670
2022-09-11T10:57:01.050Z,44.0570
2022-09-11T10:58:03.267Z,44.1030
2022-09-11T10:59:05.470Z,44.1760
2022-09-11T11:00:07.717Z,44.2720
2022-09-11T11:01:10.050Z,44.3810
2022-09-11T11:02:10.117Z,44.4490
2022-09-11T11:03:12.310Z,44.5010
2022-09-11T11:04:14.538Z,44.5990
2022-09-11T11:05:16.798Z,44.5690
2022-09-11T11:06:19.023Z,44.6310
2022-09-11T11:07:21.290Z,44.5530
2022-09-11T11:08:23.547Z,44.4230
2022-09-11T11:09:30.846Z,44.4550
2022-09-11T11:10:28.112Z,44.5450
2022-09-11T11:11:28.165Z,44.2480
2022-09-11T11:12:30.425Z,44.1620
2022-09-11T11:13:32.713Z,44.1420
2022-09-11T11:14:34.994Z,43.9260
2022-09-11T11:15:37.407Z,43.9870
2022-09-11T11:16:39.594Z,43.9160
2022-09-11T11:17:41.846Z,43.8740
2022-09-11T11:18:42.141Z,43.9790
2022-09-11T11:19:42.193Z,44.0560
2022-09-11T11:20:44.555Z,43.9290
2022-09-11T11:21:46.860Z,43.9290
2022-09-11T11:22:49.201Z,44.0080
2022-09-11T11:23:49.364Z,44.0140
2022-09-11T11:24:51.710Z,44.0480
2022-09-11T11:25:54.081Z,44.0950
2022-09-11T11:26:56.303Z,44.1250
2022-09-11T11:27:58.623Z,44.1910
2022-09-11T11:29:00.893Z,44.3130
2022-09-11T11:30:03.169Z,44.4460
2022-09-11T11:31:03.448Z,44.4480
2022-09-11T11:32:05.641Z,44.4640
2022-09-11T11:33:08.007Z,44.4180
2022-09-11T11:34:10.245Z,44.3440
2022-09-11T11:35:12.510Z,44.2990
2022-09-11T11:36:14.799Z,44.3470
2022-09-11T11:37:17.063Z,44.3720
2022-09-11T11:38:17.217Z,44.3010
2022-09-11T11:39:19.504Z,44.0540
2022-09-11T11:40:21.832Z,44.1210
2022-09-11T11:41:24.181Z,44.0450
2022-09-11T11:42:26.438Z,44.0870
2022-09-11T11:43:28.747Z,44.0350
2022-09-11T11:44:28.882Z,44.0080
2022-09-11T11:45:31.187Z,44.1070
2022-09-11T11:46:31.424Z,43.8390
2022-09-11T11:47:33.719Z,43.9640
2022-09-11T11:48:36.056Z,43.9580
2022-09-11T11:49:38.393Z,44.0430
2022-09-11T11:50:38.595Z,44.1090
2022-09-11T11:51:41.087Z,44.1870
2022-09-11T11:52:43.302Z,44.3010
2022-09-11T11:53:45.640Z,44.3880
2022-09-11T11:54:47.933Z,44.4080
2022-09-11T11:55:48.111Z,44.2980
2022-09-11T11:56:50.491Z,44.4420
2022-09-11T11:57:52.769Z,44.2660
2022-09-11T11:58:55.112Z,44.2980
2022-09-11T11:59:57.476Z,44.2540
2022-09-11T12:00:57.656Z,44.1530
2022-09-11T12:02:00.162Z,44.3440
2022-09-11T12:03:02.277Z,44.2090
2022-09-11T12:04:04.596Z,44.4860
2022-09-11T12:05:06.903Z,44.4920
2022-09-11T12:06:09.214Z,44.8350
2022-09-11T12:07:09.499Z,44.6790
2022-09-11T12:08:11.658Z,44.8490
2022-09-11T12:09:13.932Z,44.9170
2022-09-11T12:10:16.218Z,44.9090
2022-09-11T12:11:18.549Z,44.9430
2022-09-11T12:12:21.004Z,44.9670
2022-09-11T12:13:21.059Z,44.9450
2022-09-11T12:14:23.400Z,45.0730
2022-09-11T12:15:25.732Z,45.1470
2022-09-11T12:16:28.287Z,45.1350
2022-09-11T12:17:30.399Z,44.8250
2022-09-11T12:18:32.681Z,44.7390
2022-09-11T12:19:32.851Z,45.2500
2022-09-11T12:20:35.156Z,45.2740
2022-09-11T12:21:37.460Z,45.1570
2022-09-11T12:22:39.825Z,45.0210
2022-09-11T12:23:41.993Z,44.9670
2022-09-11T12:24:44.247Z,44.7420
2022-09-11T12:25:46.523Z,44.9830
2022-09-11T12:26:46.637Z,45.2610
2022-09-11T12:27:48.967Z,45.0330
2022-09-11T12:28:51.119Z,44.7830
2022-09-11T12:29:53.371Z,44.6260
2022-09-11T12:30:55.686Z,45.1440
2022-09-11T12:31:57.862Z,45.3620
2022-09-11T12:33:00.071Z,45.2680
2022-09-11T12:34:02.277Z,45.4240